sensor_id;sensor_type;location;lat;lon;timestamp;P1;durP1;ratioP1;P2;durP2;ratioP2
9918;SDS011;4998;51.024;13.828;2022-10-16T00:01:24;8.00;;;7.30;;
9918;SDS011;4998;51.024;13.828;2022-10-16T00:03:52;7.83;;;7.13;;
9918;SDS011;4998;51.024;13.828;2022-10-16T00:06:20;8.50;;;7.70;;
9918;SDS011;4998;51.024;13.828;2022-10-16T00:08:48;8.57;;;7.73;;
9918;SDS011;4998;51.024;13.828;2022-10-16T00:11:17;8.80;;;8.00;;
9918;SDS011;4998;51.024;13.828;2022-10-16T00:13:45;8.27;;;7.50;;
9918;SDS011;4998;51.024;13.828;2022-10-16T00:16:14;8.33;;;6.87;;
9918;SDS011;4998;51.024;13.828;2022-10-16T00:18:43;8.27;;;7.57;;
9918;SDS011;4998;51.024;13.828;2022-10-16T00:21:11;10.47;;;7.50;;
9918;SDS011;4998;51.024;13.828;2022-10-16T00:23:39;8.07;;;7.37;;
9918;SDS011;4998;51.024;13.828;2022-10-16T00:26:08;7.73;;;7.03;;
9918;SDS011;4998;51.024;13.828;2022-10-16T00:28:37;7.37;;;6.77;;
9918;SDS011;4998;51.024;13.828;2022-10-16T00:31:04;7.90;;;7.10;;
9918;SDS011;4998;51.024;13.828;2022-10-16T00:33:32;8.00;;;7.20;;
9918;SDS011;4998;51.024;13.828;2022-10-16T00:36:01;7.40;;;6.70;;
9918;SDS011;4998;51.024;13.828;2022-10-16T00:38:29;7.67;;;6.97;;
9918;SDS011;4998;51.024;13.828;2022-10-16T00:40:56;8.07;;;7.27;;
9918;SDS011;4998;51.024;13.828;2022-10-16T00:43:34;7.80;;;7.10;;
9918;SDS011;4998;51.024;13.828;2022-10-16T00:46:05;6.63;;;6.00;;
9918;SDS011;4998;51.024;13.828;2022-10-16T00:48:36;6.53;;;6.03;;
9918;SDS011;4998;51.024;13.828;2022-10-16T00:51:05;7.60;;;6.90;;
9918;SDS011;4998;51.024;13.828;2022-10-16T00:53:33;7.43;;;6.73;;
9918;SDS011;4998;51.024;13.828;2022-10-16T00:56:01;7.90;;;7.10;;
9918;SDS011;4998;51.024;13.828;2022-10-16T00:58:29;7.20;;;6.50;;
9918;SDS011;4998;51.024;13.828;2022-10-16T01:00:56;6.17;;;5.67;;
9918;SDS011;4998;51.024;13.828;2022-10-16T01:03:24;6.73;;;6.20;;
9918;SDS011;4998;51.024;13.828;2022-10-16T01:05:55;6.73;;;6.13;;
9918;SDS011;4998;51.024;13.828;2022-10-16T01:08:36;9.27;;;5.57;;
9918;SDS011;4998;51.024;13.828;2022-10-16T01:11:12;6.60;;;6.00;;
9918;SDS011;4998;51.024;13.828;2022-10-16T01:13:48;6.77;;;6.17;;
9918;SDS011;4998;51.024;13.828;2022-10-16T01:16:20;7.40;;;6.70;;
9918;SDS011;4998;51.024;13.828;2022-10-16T01:18:57;6.23;;;5.73;;
9918;SDS011;4998;51.024;13.828;2022-10-16T01:21:31;6.60;;;6.00;;
9918;SDS011;4998;51.024;13.828;2022-10-16T01:24:06;7.77;;;6.63;;
9918;SDS011;4998;51.024;13.828;2022-10-16T01:26:46;6.90;;;6.30;;
9918;SDS011;4998;51.024;13.828;2022-10-16T01:29:28;7.80;;;7.10;;
9918;SDS011;4998;51.024;13.828;2022-10-16T01:31:59;7.50;;;6.80;;
9918;SDS011;4998;51.024;13.828;2022-10-16T01:34:29;8.10;;;7.40;;
9918;SDS011;4998;51.024;13.828;2022-10-16T01:37:02;8.10;;;7.33;;
9918;SDS011;4998;51.024;13.828;2022-10-16T01:39:34;8.17;;;7.47;;
9918;SDS011;4998;51.024;13.828;2022-10-16T01:42:06;7.83;;;7.10;;
9918;SDS011;4998;51.024;13.828;2022-10-16T01:44:39;8.20;;;7.50;;
9918;SDS011;4998;51.024;13.828;2022-10-16T01:47:07;9.07;;;8.20;;
9918;SDS011;4998;51.024;13.828;2022-10-16T01:49:37;8.70;;;7.90;;
9918;SDS011;4998;51.024;13.828;2022-10-16T01:52:07;9.37;;;8.47;;
9918;SDS011;4998;51.024;13.828;2022-10-16T01:54:37;8.57;;;7.77;;
9918;SDS011;4998;51.024;13.828;2022-10-16T01:57:08;8.77;;;7.97;;
9918;SDS011;4998;51.024;13.828;2022-10-16T01:59:39;8.37;;;7.63;;
9918;SDS011;4998;51.024;13.828;2022-10-16T02:02:10;9.00;;;8.20;;
9918;SDS011;4998;51.024;13.828;2022-10-16T02:04:39;9.13;;;8.30;;
9918;SDS011;4998;51.024;13.828;2022-10-16T02:07:11;9.40;;;8.60;;
9918;SDS011;4998;51.024;13.828;2022-10-16T02:09:39;9.87;;;8.97;;
9918;SDS011;4998;51.024;13.828;2022-10-16T02:12:07;9.20;;;8.40;;
9918;SDS011;4998;51.024;13.828;2022-10-16T02:14:40;9.57;;;8.70;;
9918;SDS011;4998;51.024;13.828;2022-10-16T02:17:11;10.30;;;9.30;;
9918;SDS011;4998;51.024;13.828;2022-10-16T02:19:38;9.17;;;8.30;;
9918;SDS011;4998;51.024;13.828;2022-10-16T02:22:06;8.90;;;8.10;;
9918;SDS011;4998;51.024;13.828;2022-10-16T02:24:38;8.60;;;7.80;;
9918;SDS011;4998;51.024;13.828;2022-10-16T02:27:09;8.90;;;8.10;;
9918;SDS011;4998;51.024;13.828;2022-10-16T02:29:42;9.00;;;8.20;;
9918;SDS011;4998;51.024;13.828;2022-10-16T02:32:15;8.70;;;8.00;;
9918;SDS011;4998;51.024;13.828;2022-10-16T02:34:46;8.20;;;7.50;;
9918;SDS011;4998;51.024;13.828;2022-10-16T02:37:15;7.90;;;7.20;;
9918;SDS011;4998;51.024;13.828;2022-10-16T02:39:43;8.03;;;7.23;;
9918;SDS011;4998;51.024;13.828;2022-10-16T02:42:12;7.93;;;7.23;;
9918;SDS011;4998;51.024;13.828;2022-10-16T02:44:40;7.30;;;6.67;;
9918;SDS011;4998;51.024;13.828;2022-10-16T02:47:07;7.87;;;7.17;;
9918;SDS011;4998;51.024;13.828;2022-10-16T02:49:34;7.27;;;6.67;;
9918;SDS011;4998;51.024;13.828;2022-10-16T02:52:00;7.27;;;6.67;;
9918;SDS011;4998;51.024;13.828;2022-10-16T02:54:28;7.00;;;6.40;;
9918;SDS011;4998;51.024;13.828;2022-10-16T02:56:54;7.27;;;6.67;;
9918;SDS011;4998;51.024;13.828;2022-10-16T02:59:23;8.00;;;6.43;;
9918;SDS011;4998;51.024;13.828;2022-10-16T03:01:50;7.63;;;6.87;;
9918;SDS011;4998;51.024;13.828;2022-10-16T03:04:17;6.97;;;6.37;;
9918;SDS011;4998;51.024;13.828;2022-10-16T03:06:44;7.10;;;6.40;;
9918;SDS011;4998;51.024;13.828;2022-10-16T03:09:10;6.87;;;6.27;;
9918;SDS011;4998;51.024;13.828;2022-10-16T03:11:37;7.17;;;6.53;;
9918;SDS011;4998;51.024;13.828;2022-10-16T03:14:04;7.33;;;6.63;;
9918;SDS011;4998;51.024;13.828;2022-10-16T03:16:32;6.80;;;6.23;;
9918;SDS011;4998;51.024;13.828;2022-10-16T03:18:59;7.40;;;6.70;;
9918;SDS011;4998;51.024;13.828;2022-10-16T03:21:26;7.67;;;6.97;;
9918;SDS011;4998;51.024;13.828;2022-10-16T03:23:53;7.57;;;6.87;;
9918;SDS011;4998;51.024;13.828;2022-10-16T03:26:20;8.10;;;7.40;;
9918;SDS011;4998;51.024;13.828;2022-10-16T03:28:47;8.27;;;7.47;;
9918;SDS011;4998;51.024;13.828;2022-10-16T03:31:14;7.90;;;7.10;;
9918;SDS011;4998;51.024;13.828;2022-10-16T03:33:42;6.77;;;6.20;;
9918;SDS011;4998;51.024;13.828;2022-10-16T03:36:09;8.68;;;7.25;;
9918;SDS011;4998;51.024;13.828;2022-10-16T03:38:36;7.73;;;6.97;;
9918;SDS011;4998;51.024;13.828;2022-10-16T03:41:02;7.37;;;6.70;;
9918;SDS011;4998;51.024;13.828;2022-10-16T03:43:30;7.90;;;7.20;;
9918;SDS011;4998;51.024;13.828;2022-10-16T03:45:56;7.50;;;6.80;;
9918;SDS011;4998;51.024;13.828;2022-10-16T03:48:23;7.40;;;6.80;;
9918;SDS011;4998;51.024;13.828;2022-10-16T03:50:51;7.23;;;6.63;;
9918;SDS011;4998;51.024;13.828;2022-10-16T03:53:19;7.83;;;7.20;;
9918;SDS011;4998;51.024;13.828;2022-10-16T03:55:46;7.90;;;7.20;;
9918;SDS011;4998;51.024;13.828;2022-10-16T03:58:14;8.03;;;7.23;;
9918;SDS011;4998;51.024;13.828;2022-10-16T04:00:41;7.53;;;6.93;;
9918;SDS011;4998;51.024;13.828;2022-10-16T04:03:08;7.60;;;6.90;;
9918;SDS011;4998;51.024;13.828;2022-10-16T04:05:36;7.67;;;7.03;;
9918;SDS011;4998;51.024;13.828;2022-10-16T04:08:04;7.90;;;7.10;;
9918;SDS011;4998;51.024;13.828;2022-10-16T04:10:32;7.27;;;6.67;;
9918;SDS011;4998;51.024;13.828;2022-10-16T04:12:58;6.77;;;6.17;;
9918;SDS011;4998;51.024;13.828;2022-10-16T04:15:25;7.67;;;7.07;;
9918;SDS011;4998;51.024;13.828;2022-10-16T04:17:52;7.40;;;6.70;;
9918;SDS011;4998;51.024;13.828;2022-10-16T04:20:19;7.37;;;6.67;;
9918;SDS011;4998;51.024;13.828;2022-10-16T04:22:46;6.80;;;6.10;;
9918;SDS011;4998;51.024;13.828;2022-10-16T04:25:14;6.90;;;6.30;;
9918;SDS011;4998;51.024;13.828;2022-10-16T04:27:41;7.27;;;6.67;;
9918;SDS011;4998;51.024;13.828;2022-10-16T04:30:08;7.50;;;6.80;;
9918;SDS011;4998;51.024;13.828;2022-10-16T04:32:36;6.57;;;6.07;;
9918;SDS011;4998;51.024;13.828;2022-10-16T04:35:03;7.47;;;6.87;;
9918;SDS011;4998;51.024;13.828;2022-10-16T04:37:30;6.87;;;6.27;;
9918;SDS011;4998;51.024;13.828;2022-10-16T04:39:57;7.40;;;6.80;;
9918;SDS011;4998;51.024;13.828;2022-10-16T04:42:25;7.60;;;6.90;;
9918;SDS011;4998;51.024;13.828;2022-10-16T04:44:52;7.17;;;6.57;;
9918;SDS011;4998;51.024;13.828;2022-10-16T04:47:19;7.53;;;6.93;;
9918;SDS011;4998;51.024;13.828;2022-10-16T04:49:46;7.40;;;6.80;;
9918;SDS011;4998;51.024;13.828;2022-10-16T04:52:13;6.93;;;6.30;;
9918;SDS011;4998;51.024;13.828;2022-10-16T04:54:40;7.10;;;6.50;;
9918;SDS011;4998;51.024;13.828;2022-10-16T04:57:07;6.87;;;6.27;;
9918;SDS011;4998;51.024;13.828;2022-10-16T04:59:35;7.23;;;6.63;;
9918;SDS011;4998;51.024;13.828;2022-10-16T05:02:02;6.90;;;6.20;;
9918;SDS011;4998;51.024;13.828;2022-10-16T05:04:29;7.23;;;6.63;;
9918;SDS011;4998;51.024;13.828;2022-10-16T05:06:56;6.53;;;5.73;;
9918;SDS011;4998;51.024;13.828;2022-10-16T05:09:23;7.30;;;6.27;;
9918;SDS011;4998;51.024;13.828;2022-10-16T05:11:50;6.77;;;6.27;;
9918;SDS011;4998;51.024;13.828;2022-10-16T05:14:16;5.97;;;5.50;;
9918;SDS011;4998;51.024;13.828;2022-10-16T05:16:45;7.80;;;6.27;;
9918;SDS011;4998;51.024;13.828;2022-10-16T05:19:13;6.60;;;6.00;;
9918;SDS011;4998;51.024;13.828;2022-10-16T05:21:40;6.90;;;6.30;;
9918;SDS011;4998;51.024;13.828;2022-10-16T05:24:07;6.60;;;6.00;;
9918;SDS011;4998;51.024;13.828;2022-10-16T05:26:34;6.07;;;5.57;;
9918;SDS011;4998;51.024;13.828;2022-10-16T05:29:01;5.93;;;5.43;;
9918;SDS011;4998;51.024;13.828;2022-10-16T05:31:28;6.23;;;5.73;;
9918;SDS011;4998;51.024;13.828;2022-10-16T05:33:59;6.47;;;5.90;;
9918;SDS011;4998;51.024;13.828;2022-10-16T05:36:26;6.40;;;5.90;;
9918;SDS011;4998;51.024;13.828;2022-10-16T05:38:53;5.77;;;5.37;;
9918;SDS011;4998;51.024;13.828;2022-10-16T05:41:20;6.20;;;5.70;;
9918;SDS011;4998;51.024;13.828;2022-10-16T05:43:48;5.40;;;5.00;;
9918;SDS011;4998;51.024;13.828;2022-10-16T05:46:15;5.77;;;5.27;;
9918;SDS011;4998;51.024;13.828;2022-10-16T05:48:45;6.17;;;5.70;;
9918;SDS011;4998;51.024;13.828;2022-10-16T05:51:13;6.23;;;5.63;;
9918;SDS011;4998;51.024;13.828;2022-10-16T05:53:41;6.33;;;5.83;;
9918;SDS011;4998;51.024;13.828;2022-10-16T05:56:09;7.17;;;6.60;;
9918;SDS011;4998;51.024;13.828;2022-10-16T05:58:37;6.60;;;6.00;;
9918;SDS011;4998;51.024;13.828;2022-10-16T06:01:06;6.60;;;6.10;;
9918;SDS011;4998;51.024;13.828;2022-10-16T06:03:35;7.43;;;6.83;;
9918;SDS011;4998;51.024;13.828;2022-10-16T06:06:07;9.93;;;8.17;;
9918;SDS011;4998;51.024;13.828;2022-10-16T06:08:35;8.30;;;7.60;;
9918;SDS011;4998;51.024;13.828;2022-10-16T06:11:03;8.57;;;7.77;;
9918;SDS011;4998;51.024;13.828;2022-10-16T06:13:31;9.57;;;8.50;;
9918;SDS011;4998;51.024;13.828;2022-10-16T06:15:58;9.50;;;8.63;;
9918;SDS011;4998;51.024;13.828;2022-10-16T06:18:26;8.53;;;7.83;;
9918;SDS011;4998;51.024;13.828;2022-10-16T06:20:54;9.40;;;8.50;;
9918;SDS011;4998;51.024;13.828;2022-10-16T06:23:21;10.30;;;9.40;;
9918;SDS011;4998;51.024;13.828;2022-10-16T06:25:50;10.10;;;9.20;;
9918;SDS011;4998;51.024;13.828;2022-10-16T06:28:17;10.90;;;9.80;;
9918;SDS011;4998;51.024;13.828;2022-10-16T06:30:44;10.20;;;9.20;;
9918;SDS011;4998;51.024;13.828;2022-10-16T06:33:11;9.80;;;9.00;;
9918;SDS011;4998;51.024;13.828;2022-10-16T06:35:38;10.13;;;9.30;;
9918;SDS011;4998;51.024;13.828;2022-10-16T06:38:04;10.07;;;9.17;;
9918;SDS011;4998;51.024;13.828;2022-10-16T06:40:31;10.97;;;9.93;;
9918;SDS011;4998;51.024;13.828;2022-10-16T06:42:59;10.33;;;9.43;;
9918;SDS011;4998;51.024;13.828;2022-10-16T06:45:26;11.13;;;10.03;;
9918;SDS011;4998;51.024;13.828;2022-10-16T06:47:53;9.90;;;9.10;;
9918;SDS011;4998;51.024;13.828;2022-10-16T06:50:20;9.03;;;8.17;;
9918;SDS011;4998;51.024;13.828;2022-10-16T06:52:47;9.77;;;8.87;;
9918;SDS011;4998;51.024;13.828;2022-10-16T06:55:14;8.97;;;8.27;;
9918;SDS011;4998;51.024;13.828;2022-10-16T06:57:42;8.67;;;7.77;;
9918;SDS011;4998;51.024;13.828;2022-10-16T07:00:11;9.17;;;8.27;;
9918;SDS011;4998;51.024;13.828;2022-10-16T07:02:38;8.60;;;7.90;;
9918;SDS011;4998;51.024;13.828;2022-10-16T07:05:05;7.47;;;6.90;;
9918;SDS011;4998;51.024;13.828;2022-10-16T07:07:32;7.77;;;7.17;;
9918;SDS011;4998;51.024;13.828;2022-10-16T07:09:59;8.70;;;8.00;;
9918;SDS011;4998;51.024;13.828;2022-10-16T07:12:26;8.60;;;7.80;;
9918;SDS011;4998;51.024;13.828;2022-10-16T07:14:52;8.27;;;7.47;;
9918;SDS011;4998;51.024;13.828;2022-10-16T07:17:22;8.40;;;7.70;;
9918;SDS011;4998;51.024;13.828;2022-10-16T07:19:48;8.50;;;7.80;;
9918;SDS011;4998;51.024;13.828;2022-10-16T07:22:18;8.10;;;7.33;;
9918;SDS011;4998;51.024;13.828;2022-10-16T07:24:45;8.70;;;8.00;;
9918;SDS011;4998;51.024;13.828;2022-10-16T07:27:11;8.20;;;7.50;;
9918;SDS011;4998;51.024;13.828;2022-10-16T07:29:38;8.50;;;7.70;;
9918;SDS011;4998;51.024;13.828;2022-10-16T07:32:05;7.03;;;6.43;;
9918;SDS011;4998;51.024;13.828;2022-10-16T07:34:33;7.63;;;6.67;;
9918;SDS011;4998;51.024;13.828;2022-10-16T07:37:00;7.27;;;6.70;;
9918;SDS011;4998;51.024;13.828;2022-10-16T07:39:27;8.20;;;7.40;;
9918;SDS011;4998;51.024;13.828;2022-10-16T07:41:54;7.80;;;7.10;;
9918;SDS011;4998;51.024;13.828;2022-10-16T07:44:21;7.83;;;7.13;;
9918;SDS011;4998;51.024;13.828;2022-10-16T07:46:48;8.30;;;7.60;;
9918;SDS011;4998;51.024;13.828;2022-10-16T07:49:15;7.90;;;7.30;;
9918;SDS011;4998;51.024;13.828;2022-10-16T07:51:43;8.07;;;7.27;;
9918;SDS011;4998;51.024;13.828;2022-10-16T07:54:10;8.17;;;7.37;;
9918;SDS011;4998;51.024;13.828;2022-10-16T07:56:37;8.07;;;7.40;;
9918;SDS011;4998;51.024;13.828;2022-10-16T07:59:04;7.60;;;6.80;;
9918;SDS011;4998;51.024;13.828;2022-10-16T08:01:31;7.30;;;6.70;;
9918;SDS011;4998;51.024;13.828;2022-10-16T08:03:57;7.60;;;7.00;;
9918;SDS011;4998;51.024;13.828;2022-10-16T08:06:24;7.33;;;6.73;;
9918;SDS011;4998;51.024;13.828;2022-10-16T08:08:53;12.30;;;7.47;;
9918;SDS011;4998;51.024;13.828;2022-10-16T08:11:20;7.00;;;6.40;;
9918;SDS011;4998;51.024;13.828;2022-10-16T08:13:48;7.10;;;6.50;;
9918;SDS011;4998;51.024;13.828;2022-10-16T08:16:14;6.80;;;6.10;;
9918;SDS011;4998;51.024;13.828;2022-10-16T08:18:42;6.40;;;5.87;;
9918;SDS011;4998;51.024;13.828;2022-10-16T08:21:12;6.30;;;5.73;;
9918;SDS011;4998;51.024;13.828;2022-10-16T08:23:40;6.33;;;5.83;;
9918;SDS011;4998;51.024;13.828;2022-10-16T08:26:08;6.30;;;5.80;;
9918;SDS011;4998;51.024;13.828;2022-10-16T08:28:35;6.20;;;5.70;;
9918;SDS011;4998;51.024;13.828;2022-10-16T08:31:06;6.13;;;5.53;;
9918;SDS011;4998;51.024;13.828;2022-10-16T08:33:34;6.33;;;5.83;;
9918;SDS011;4998;51.024;13.828;2022-10-16T08:36:01;5.50;;;5.10;;
9918;SDS011;4998;51.024;13.828;2022-10-16T08:38:28;6.00;;;5.50;;
9918;SDS011;4998;51.024;13.828;2022-10-16T08:40:57;6.20;;;5.70;;
9918;SDS011;4998;51.024;13.828;2022-10-16T08:43:56;6.77;;;6.13;;
9918;SDS011;4998;51.024;13.828;2022-10-16T08:46:50;6.30;;;5.70;;
9918;SDS011;4998;51.024;13.828;2022-10-16T08:49:26;5.87;;;5.47;;
9918;SDS011;4998;51.024;13.828;2022-10-16T08:51:53;6.83;;;6.23;;
9918;SDS011;4998;51.024;13.828;2022-10-16T08:54:23;6.20;;;5.70;;
9918;SDS011;4998;51.024;13.828;2022-10-16T08:56:56;6.80;;;6.30;;
9918;SDS011;4998;51.024;13.828;2022-10-16T08:59:23;7.20;;;6.50;;
9918;SDS011;4998;51.024;13.828;2022-10-16T09:01:50;6.80;;;6.20;;
9918;SDS011;4998;51.024;13.828;2022-10-16T09:07:24;7.47;;;6.87;;
9918;SDS011;4998;51.024;13.828;2022-10-16T09:10:02;7.60;;;7.00;;
9918;SDS011;4998;51.024;13.828;2022-10-16T09:12:42;8.10;;;7.40;;
9918;SDS011;4998;51.024;13.828;2022-10-16T09:15:21;8.20;;;7.50;;
9918;SDS011;4998;51.024;13.828;2022-10-16T09:17:56;7.83;;;7.23;;
9918;SDS011;4998;51.024;13.828;2022-10-16T09:20:32;7.90;;;7.20;;
9918;SDS011;4998;51.024;13.828;2022-10-16T09:23:15;8.30;;;7.60;;
9918;SDS011;4998;51.024;13.828;2022-10-16T09:25:44;9.33;;;8.57;;
9918;SDS011;4998;51.024;13.828;2022-10-16T09:28:15;8.20;;;7.50;;
9918;SDS011;4998;51.024;13.828;2022-10-16T09:30:42;9.47;;;8.67;;
9918;SDS011;4998;51.024;13.828;2022-10-16T09:33:10;9.27;;;8.47;;
9918;SDS011;4998;51.024;13.828;2022-10-16T09:35:39;9.23;;;8.43;;
9918;SDS011;4998;51.024;13.828;2022-10-16T09:38:08;9.17;;;8.37;;
9918;SDS011;4998;51.024;13.828;2022-10-16T09:40:36;9.97;;;9.07;;
9918;SDS011;4998;51.024;13.828;2022-10-16T09:43:12;10.13;;;8.80;;
9918;SDS011;4998;51.024;13.828;2022-10-16T09:45:55;9.03;;;8.33;;
9918;SDS011;4998;51.024;13.828;2022-10-16T09:48:27;9.03;;;8.30;;
9918;SDS011;4998;51.024;13.828;2022-10-16T09:51:00;7.87;;;7.23;;
9918;SDS011;4998;51.024;13.828;2022-10-16T09:53:38;8.93;;;8.00;;
9918;SDS011;4998;51.024;13.828;2022-10-16T09:56:09;7.63;;;6.90;;
9918;SDS011;4998;51.024;13.828;2022-10-16T09:58:43;10.10;;;7.50;;
9918;SDS011;4998;51.024;13.828;2022-10-16T10:01:17;7.40;;;6.70;;
9918;SDS011;4998;51.024;13.828;2022-10-16T10:03:46;7.30;;;6.70;;
9918;SDS011;4998;51.024;13.828;2022-10-16T10:06:16;7.10;;;6.50;;
9918;SDS011;4998;51.024;13.828;2022-10-16T10:08:54;7.40;;;6.80;;
9918;SDS011;4998;51.024;13.828;2022-10-16T10:14:15;6.27;;;5.77;;
9918;SDS011;4998;51.024;13.828;2022-10-16T10:16:45;6.20;;;5.70;;
9918;SDS011;4998;51.024;13.828;2022-10-16T10:19:14;6.30;;;5.80;;
9918;SDS011;4998;51.024;13.828;2022-10-16T10:21:42;9.90;;;6.43;;
9918;SDS011;4998;51.024;13.828;2022-10-16T10:24:12;5.80;;;5.40;;
9918;SDS011;4998;51.024;13.828;2022-10-16T10:26:41;5.60;;;5.20;;
9918;SDS011;4998;51.024;13.828;2022-10-16T10:29:17;5.77;;;5.37;;
9918;SDS011;4998;51.024;13.828;2022-10-16T10:31:52;6.20;;;5.67;;
9918;SDS011;4998;51.024;13.828;2022-10-16T10:34:35;5.87;;;5.47;;
9918;SDS011;4998;51.024;13.828;2022-10-16T10:37:14;5.23;;;4.87;;
9918;SDS011;4998;51.024;13.828;2022-10-16T10:39:56;4.70;;;4.30;;
9918;SDS011;4998;51.024;13.828;2022-10-16T10:42:29;4.37;;;4.07;;
9918;SDS011;4998;51.024;13.828;2022-10-16T10:45:11;4.10;;;3.80;;
9918;SDS011;4998;51.024;13.828;2022-10-16T10:47:46;4.00;;;3.70;;
9918;SDS011;4998;51.024;13.828;2022-10-16T10:50:22;3.23;;;3.03;;
9918;SDS011;4998;51.024;13.828;2022-10-16T10:52:59;4.30;;;3.90;;
9918;SDS011;4998;51.024;13.828;2022-10-16T10:55:40;3.50;;;3.30;;
9918;SDS011;4998;51.024;13.828;2022-10-16T10:58:18;4.50;;;4.00;;
9918;SDS011;4998;51.024;13.828;2022-10-16T11:01:02;3.40;;;3.20;;
9918;SDS011;4998;51.024;13.828;2022-10-16T11:03:39;3.90;;;3.60;;
9918;SDS011;4998;51.024;13.828;2022-10-16T11:06:23;3.57;;;3.37;;
9918;SDS011;4998;51.024;13.828;2022-10-16T11:08:55;3.40;;;3.20;;
9918;SDS011;4998;51.024;13.828;2022-10-16T11:11:28;3.00;;;2.80;;
9918;SDS011;4998;51.024;13.828;2022-10-16T11:13:58;2.63;;;2.43;;
9918;SDS011;4998;51.024;13.828;2022-10-16T11:16:31;2.10;;;2.00;;
9918;SDS011;4998;51.024;13.828;2022-10-16T11:19:03;2.10;;;2.00;;
9918;SDS011;4998;51.024;13.828;2022-10-16T11:21:39;1.30;;;1.30;;
9918;SDS011;4998;51.024;13.828;2022-10-16T11:24:14;1.50;;;1.40;;
9918;SDS011;4998;51.024;13.828;2022-10-16T11:26:46;1.20;;;1.10;;
9918;SDS011;4998;51.024;13.828;2022-10-16T11:29:15;1.03;;;1.03;;
9918;SDS011;4998;51.024;13.828;2022-10-16T11:31:47;2.30;;;1.10;;
9918;SDS011;4998;51.024;13.828;2022-10-16T11:34:21;1.60;;;1.30;;
9918;SDS011;4998;51.024;13.828;2022-10-16T11:36:53;1.30;;;1.20;;
9918;SDS011;4998;51.024;13.828;2022-10-16T11:39:25;1.23;;;0.90;;
9918;SDS011;4998;51.024;13.828;2022-10-16T11:41:54;0.93;;;0.93;;
9918;SDS011;4998;51.024;13.828;2022-10-16T11:44:31;0.90;;;0.90;;
9918;SDS011;4998;51.024;13.828;2022-10-16T11:47:09;1.27;;;1.17;;
9918;SDS011;4998;51.024;13.828;2022-10-16T11:49:43;0.90;;;0.90;;
9918;SDS011;4998;51.024;13.828;2022-10-16T11:52:15;3.53;;;0.70;;
9918;SDS011;4998;51.024;13.828;2022-10-16T11:54:47;0.80;;;0.80;;
9918;SDS011;4998;51.024;13.828;2022-10-16T11:57:20;1.37;;;0.80;;
9918;SDS011;4998;51.024;13.828;2022-10-16T11:59:51;1.00;;;1.00;;
9918;SDS011;4998;51.024;13.828;2022-10-16T12:02:38;1.00;;;0.90;;
9918;SDS011;4998;51.024;13.828;2022-10-16T12:05:18;0.80;;;0.80;;
9918;SDS011;4998;51.024;13.828;2022-10-16T12:07:53;0.80;;;0.80;;
9918;SDS011;4998;51.024;13.828;2022-10-16T12:10:29;0.80;;;0.80;;
9918;SDS011;4998;51.024;13.828;2022-10-16T12:13:02;2.20;;;0.80;;
9918;SDS011;4998;51.024;13.828;2022-10-16T12:15:29;1.33;;;1.23;;
9918;SDS011;4998;51.024;13.828;2022-10-16T12:17:59;1.33;;;1.17;;
9918;SDS011;4998;51.024;13.828;2022-10-16T12:20:28;1.00;;;1.00;;
9918;SDS011;4998;51.024;13.828;2022-10-16T12:22:58;0.80;;;0.80;;
9918;SDS011;4998;51.024;13.828;2022-10-16T12:25:27;0.90;;;0.90;;
9918;SDS011;4998;51.024;13.828;2022-10-16T12:28:00;0.77;;;0.77;;
9918;SDS011;4998;51.024;13.828;2022-10-16T12:30:30;0.80;;;0.80;;
9918;SDS011;4998;51.024;13.828;2022-10-16T12:33:01;1.70;;;0.70;;
9918;SDS011;4998;51.024;13.828;2022-10-16T12:35:30;0.70;;;0.70;;
9918;SDS011;4998;51.024;13.828;2022-10-16T12:38:06;0.93;;;0.93;;
9918;SDS011;4998;51.024;13.828;2022-10-16T12:40:39;0.90;;;0.90;;
9918;SDS011;4998;51.024;13.828;2022-10-16T12:43:13;1.10;;;0.87;;
9918;SDS011;4998;51.024;13.828;2022-10-16T12:45:59;0.80;;;0.80;;
9918;SDS011;4998;51.024;13.828;2022-10-16T12:48:28;1.00;;;1.00;;
9918;SDS011;4998;51.024;13.828;2022-10-16T12:50:56;1.20;;;1.10;;
9918;SDS011;4998;51.024;13.828;2022-10-16T12:53:23;0.90;;;0.90;;
9918;SDS011;4998;51.024;13.828;2022-10-16T12:55:53;0.90;;;0.90;;
9918;SDS011;4998;51.024;13.828;2022-10-16T12:58:32;1.00;;;1.00;;
9918;SDS011;4998;51.024;13.828;2022-10-16T13:01:13;1.00;;;1.00;;
9918;SDS011;4998;51.024;13.828;2022-10-16T13:03:53;1.50;;;1.00;;
9918;SDS011;4998;51.024;13.828;2022-10-16T13:06:33;0.90;;;0.90;;
9918;SDS011;4998;51.024;13.828;2022-10-16T13:09:12;0.70;;;0.70;;
9918;SDS011;4998;51.024;13.828;2022-10-16T13:12:00;0.90;;;0.90;;
9918;SDS011;4998;51.024;13.828;2022-10-16T13:14:41;1.00;;;1.00;;
9918;SDS011;4998;51.024;13.828;2022-10-16T13:17:25;0.80;;;0.80;;
9918;SDS011;4998;51.024;13.828;2022-10-16T13:20:04;0.80;;;0.80;;
9918;SDS011;4998;51.024;13.828;2022-10-16T13:22:39;0.73;;;0.73;;
9918;SDS011;4998;51.024;13.828;2022-10-16T13:25:17;1.00;;;1.00;;
9918;SDS011;4998;51.024;13.828;2022-10-16T13:27:55;0.70;;;0.70;;
9918;SDS011;4998;51.024;13.828;2022-10-16T13:30:24;0.80;;;0.80;;
9918;SDS011;4998;51.024;13.828;2022-10-16T13:32:54;4.30;;;0.80;;
9918;SDS011;4998;51.024;13.828;2022-10-16T13:35:28;0.80;;;0.80;;
9918;SDS011;4998;51.024;13.828;2022-10-16T13:38:12;1.57;;;1.00;;
9918;SDS011;4998;51.024;13.828;2022-10-16T13:40:48;0.90;;;0.90;;
9918;SDS011;4998;51.024;13.828;2022-10-16T13:43:16;0.70;;;0.70;;
9918;SDS011;4998;51.024;13.828;2022-10-16T13:45:52;0.70;;;0.70;;
9918;SDS011;4998;51.024;13.828;2022-10-16T13:48:19;1.17;;;0.90;;
9918;SDS011;4998;51.024;13.828;2022-10-16T13:50:48;0.80;;;0.80;;
9918;SDS011;4998;51.024;13.828;2022-10-16T13:53:25;1.33;;;0.90;;
9918;SDS011;4998;51.024;13.828;2022-10-16T13:55:52;0.80;;;0.80;;
9918;SDS011;4998;51.024;13.828;2022-10-16T13:58:18;0.70;;;0.70;;
9918;SDS011;4998;51.024;13.828;2022-10-16T14:00:53;0.90;;;0.90;;
9918;SDS011;4998;51.024;13.828;2022-10-16T14:03:21;1.73;;;1.00;;
9918;SDS011;4998;51.024;13.828;2022-10-16T14:05:50;1.10;;;1.00;;
9918;SDS011;4998;51.024;13.828;2022-10-16T14:08:19;0.90;;;0.90;;
9918;SDS011;4998;51.024;13.828;2022-10-16T14:10:47;0.93;;;0.90;;
9918;SDS011;4998;51.024;13.828;2022-10-16T14:13:16;1.43;;;0.90;;
9918;SDS011;4998;51.024;13.828;2022-10-16T14:15:46;0.93;;;0.93;;
9918;SDS011;4998;51.024;13.828;2022-10-16T14:18:16;1.37;;;1.00;;
9918;SDS011;4998;51.024;13.828;2022-10-16T14:20:46;1.03;;;1.00;;
9918;SDS011;4998;51.024;13.828;2022-10-16T14:23:22;1.50;;;1.40;;
9918;SDS011;4998;51.024;13.828;2022-10-16T14:26:04;1.30;;;1.20;;
9918;SDS011;4998;51.024;13.828;2022-10-16T14:28:32;1.00;;;1.00;;
9918;SDS011;4998;51.024;13.828;2022-10-16T14:31:00;2.50;;;1.13;;
9918;SDS011;4998;51.024;13.828;2022-10-16T14:33:31;1.27;;;1.27;;
9918;SDS011;4998;51.024;13.828;2022-10-16T14:36:03;1.57;;;1.47;;
9918;SDS011;4998;51.024;13.828;2022-10-16T14:38:33;1.30;;;1.10;;
9918;SDS011;4998;51.024;13.828;2022-10-16T14:41:00;2.17;;;1.53;;
9918;SDS011;4998;51.024;13.828;2022-10-16T14:43:31;1.20;;;1.10;;
9918;SDS011;4998;51.024;13.828;2022-10-16T14:45:59;1.27;;;1.20;;
9918;SDS011;4998;51.024;13.828;2022-10-16T14:48:29;1.73;;;1.30;;
9918;SDS011;4998;51.024;13.828;2022-10-16T14:50:56;1.20;;;1.10;;
9918;SDS011;4998;51.024;13.828;2022-10-16T14:53:23;1.87;;;1.30;;
9918;SDS011;4998;51.024;13.828;2022-10-16T14:55:52;1.57;;;1.47;;
9918;SDS011;4998;51.024;13.828;2022-10-16T14:58:19;1.77;;;1.50;;
9918;SDS011;4998;51.024;13.828;2022-10-16T15:00:48;1.57;;;1.47;;
9918;SDS011;4998;51.024;13.828;2022-10-16T15:03:15;1.50;;;1.40;;
9918;SDS011;4998;51.024;13.828;2022-10-16T15:05:42;1.43;;;1.33;;
9918;SDS011;4998;51.024;13.828;2022-10-16T15:08:09;2.90;;;1.47;;
9918;SDS011;4998;51.024;13.828;2022-10-16T15:10:38;1.50;;;1.40;;
9918;SDS011;4998;51.024;13.828;2022-10-16T15:13:09;1.40;;;1.30;;
9918;SDS011;4998;51.024;13.828;2022-10-16T15:15:39;1.90;;;1.80;;
9918;SDS011;4998;51.024;13.828;2022-10-16T15:18:09;6.53;;;5.07;;
9918;SDS011;4998;51.024;13.828;2022-10-16T15:20:37;2.73;;;2.53;;
9918;SDS011;4998;51.024;13.828;2022-10-16T15:23:05;1.90;;;1.80;;
9918;SDS011;4998;51.024;13.828;2022-10-16T15:25:41;2.13;;;1.77;;